Time;durP1;ratioP1;P1;durP2;ratioP2;P2;SDS_P1;SDS_P2;PMS_P1;PMS_P2;Temp;Humidity;BMP_temperature;BMP_pressure;BME280_temperature;BME280_humidity;BME280_pressure;Samples;Min_cycle;Max_cycle;Signal;HPM_P1;HPM_P2
2021/11/06 00:00:59;;;;;;;21.55;17.20;;;11.20;81.20;;;;;;4988542;28;20034;-77
2021/11/06 00:03:25;;;;;;;18.88;16.20;;;11.20;81.20;;;;;;4988349;28;20474;-76
2021/11/06 00:05:54;;;;;;;22.95;16.77;;;11.20;81.20;;;;;;4988584;28;20026;-76
2021/11/06 00:08:20;;;;;;;19.02;15.70;;;11.20;81.20;;;;;;4988086;28;20042;-77
2021/11/06 00:10:46;;;;;;;18.92;15.80;;;11.20;81.20;;;;;;4988599;28;20023;-78
2021/11/06 00:13:12;;;;;;;19.05;15.25;;;11.20;81.20;;;;;;4985917;28;20509;-77
2021/11/06 00:15:38;;;;;;;21.33;15.63;;;11.20;81.20;;;;;;4986584;28;20030;-76
2021/11/06 00:18:04;;;;;;;16.75;13.45;;;11.20;81.10;;;;;;4988680;28;20450;-77
2021/11/06 00:20:31;;;;;;;18.23;14.55;;;11.20;81.60;;;;;;5006496;28;20060;-80
2021/11/06 00:22:57;;;;;;;14.68;13.05;;;11.20;81.10;;;;;;5022186;28;20037;-77
2021/11/06 00:25:26;;;;;;;17.85;13.77;;;11.20;81.10;;;;;;5006835;28;20054;-77
2021/11/06 00:27:52;;;;;;;15.10;13.55;;;11.30;81.30;;;;;;5007131;28;20531;-77
2021/11/06 00:30:18;;;;;;;14.75;12.32;;;11.30;81.20;;;;;;5006989;28;20025;-77
2021/11/06 00:32:45;;;;;;;17.35;14.02;;;11.30;81.20;;;;;;5006280;28;20496;-76
2021/11/06 00:35:13;;;;;;;17.33;12.38;;;11.20;81.00;;;;;;4987503;28;20042;-76
2021/11/06 00:37:40;;;;;;;15.93;13.25;;;11.30;81.20;;;;;;4986073;28;20495;-76
2021/11/06 00:40:08;;;;;;;16.40;13.38;;;11.20;81.00;;;;;;5020148;28;20030;-76
2021/11/06 00:42:34;;;;;;;15.27;11.95;;;11.30;81.20;;;;;;5006827;28;20030;-75
2021/11/06 00:45:02;;;;;;;13.98;12.40;;;11.30;81.20;;;;;;5006908;28;20076;-77
2021/11/06 00:47:27;;;;;;;16.27;13.70;;;11.30;81.20;;;;;;4993785;28;20030;-76
2021/11/06 00:49:53;;;;;;;13.40;11.48;;;11.20;81.00;;;;;;5002875;28;20328;-76
2021/11/06 00:52:19;;;;;;;14.48;11.48;;;11.20;81.00;;;;;;5006836;28;20038;-77
2021/11/06 00:54:45;;;;;;;14.02;11.82;;;11.30;81.20;;;;;;4989638;28;20502;-75
2021/11/06 00:57:11;;;;;;;12.57;10.80;;;11.30;81.20;;;;;;4987736;28;20041;-76
2021/11/06 00:59:37;;;;;;;14.73;11.52;;;11.20;81.10;;;;;;4987264;28;20224;-76
2021/11/06 01:02:03;;;;;;;11.70;10.38;;;11.30;81.20;;;;;;4986009;28;20549;-74
2021/11/06 01:04:30;;;;;;;13.13;10.40;;;11.30;81.20;;;;;;5016833;28;20025;-76
2021/11/06 01:06:56;;;;;;;11.98;10.55;;;11.20;81.20;;;;;;5006501;28;20160;-76
2021/11/06 01:09:22;;;;;;;14.20;10.48;;;11.30;81.20;;;;;;4994964;28;20038;-76
2021/11/06 01:11:48;;;;;;;11.98;10.68;;;11.30;81.20;;;;;;4987191;28;20063;-76
2021/11/06 01:14:14;;;;;;;10.98;9.40;;;11.30;81.20;;;;;;4986330;28;20061;-76
2021/11/06 01:16:40;;;;;;;12.50;9.73;;;11.30;81.20;;;;;;4985600;28;20484;-76
2021/11/06 01:19:06;;;;;;;11.15;9.38;;;11.30;81.20;;;;;;4994981;28;20386;-76
2021/11/06 01:21:33;;;;;;;10.23;8.93;;;11.30;81.10;;;;;;5006182;28;20397;-76
2021/11/06 01:23:59;;;;;;;10.13;9.07;;;11.30;81.10;;;;;;5004497;28;20056;-75
2021/11/06 01:26:25;;;;;;;10.18;9.07;;;11.30;81.10;;;;;;5006288;28;20022;-76
2021/11/06 01:28:51;;;;;;;10.85;8.70;;;11.30;81.10;;;;;;4999226;28;20046;-76
2021/11/06 01:31:17;;;;;;;11.95;9.05;;;11.30;81.10;;;;;;4986408;28;20030;-76
2021/11/06 01:33:43;;;;;;;12.10;9.25;;;11.30;81.10;;;;;;4986848;28;20038;-76
2021/11/06 01:36:09;;;;;;;9.60;8.60;;;11.30;81.10;;;;;;4986725;28;20414;-75
2021/11/06 01:38:35;;;;;;;11.40;9.00;;;11.20;80.90;;;;;;4985909;28;20026;-76
2021/11/06 01:41:01;;;;;;;10.55;8.68;;;11.20;80.90;;;;;;4985273;28;20193;-76
2021/11/06 01:43:27;;;;;;;11.18;8.80;;;11.20;80.90;;;;;;4986082;28;20507;-75
2021/11/06 01:46:02;;;;;;;11.02;8.57;;;11.20;80.90;;;;;;4987014;28;20026;-75
2021/11/06 01:48:29;;;;;;;9.43;8.27;;;11.30;81.70;;;;;;4970178;28;20283;-76
2021/11/06 01:50:56;;;;;;;11.77;8.63;;;11.30;81.10;;;;;;4985611;28;20105;-77
2021/11/06 01:53:23;;;;;;;8.73;7.85;;;11.30;81.10;;;;;;4991698;28;20355;-77
2021/11/06 01:55:51;;;;;;;11.85;8.48;;;11.30;81.20;;;;;;5006816;28;20445;-75
2021/11/06 01:58:20;;;;;;;11.93;7.80;;;11.30;81.10;;;;;;5019161;28;20029;-77
2021/11/06 02:00:46;;;;;;;10.27;8.10;;;11.30;81.10;;;;;;4986850;28;20537;-76
2021/11/06 02:03:14;;;;;;;8.43;7.28;;;11.30;81.10;;;;;;5001624;28;20033;-76
2021/11/06 02:05:41;;;;;;;8.50;7.68;;;11.30;81.10;;;;;;4986503;28;20084;-76
2021/11/06 02:08:07;;;;;;;8.55;7.68;;;11.30;81.10;;;;;;4985923;28;20489;-76
2021/11/06 02:10:33;;;;;;;10.55;7.72;;;11.30;81.10;;;;;;4986742;28;20322;-76
2021/11/06 02:12:59;;;;;;;9.45;7.88;;;11.30;81.10;;;;;;4988044;28;20035;-77
2021/11/06 02:15:25;;;;;;;8.23;7.22;;;11.30;81.10;;;;;;5006589;28;20045;-76
2021/11/06 02:17:53;;;;;;;7.57;6.80;;;11.30;81.10;;;;;;4989513;28;20413;-77
2021/11/06 02:20:20;;;;;;;7.43;6.35;;;11.30;81.10;;;;;;4986336;28;20085;-76
2021/11/06 02:22:47;;;;;;;8.65;7.80;;;11.30;81.10;;;;;;4986344;28;20130;-77
2021/11/06 02:25:14;;;;;;;6.45;5.85;;;11.30;81.10;;;;;;5006031;28;20030;-76
2021/11/06 02:27:41;;;;;;;7.68;6.75;;;11.30;81.10;;;;;;4988154;28;20034;-77
2021/11/06 02:30:11;;;;;;;8.25;6.20;;;11.30;81.10;;;;;;4988942;28;20301;-76
2021/11/06 02:32:38;;;;;;;6.70;6.00;;;11.30;81.10;;;;;;4990327;28;20116;-75
2021/11/06 02:35:05;;;;;;;8.95;6.40;;;11.30;81.10;;;;;;4996234;28;20543;-76
2021/11/06 02:37:31;;;;;;;7.28;6.57;;;11.30;81.10;;;;;;5011222;28;20112;-77
2021/11/06 02:39:57;;;;;;;6.13;5.40;;;11.30;81.10;;;;;;4991221;28;20117;-76
2021/11/06 02:42:24;;;;;;;6.82;5.97;;;11.30;81.10;;;;;;4991320;28;20089;-77
2021/11/06 02:44:50;;;;;;;8.05;6.13;;;11.30;81.10;;;;;;4991917;28;20030;-77
2021/11/06 02:47:16;;;;;;;8.45;7.45;;;11.30;81.10;;;;;;4995174;28;20022;-76
2021/11/06 02:49:42;;;;;;;7.47;5.93;;;11.30;81.10;;;;;;5011488;28;20136;-78
2021/11/06 02:52:08;;;;;;;7.43;6.13;;;11.30;81.10;;;;;;4994320;28;20117;-77
2021/11/06 02:54:34;;;;;;;6.63;5.82;;;11.30;81.10;;;;;;5002915;28;20038;-75
2021/11/06 02:57:00;;;;;;;6.43;5.57;;;11.30;81.10;;;;;;5010749;28;20113;-76
2021/11/06 02:59:26;;;;;;;9.20;5.68;;;11.30;81.10;;;;;;4994094;28;20030;-75
2021/11/06 03:01:52;;;;;;;6.95;5.93;;;11.30;81.10;;;;;;4994622;28;20035;-77
2021/11/06 03:04:18;;;;;;;7.75;5.55;;;11.30;81.10;;;;;;4994075;28;20040;-76
2021/11/06 03:06:45;;;;;;;6.00;5.20;;;11.30;81.10;;;;;;4993267;28;20034;-77
2021/11/06 03:09:12;;;;;;;6.50;5.07;;;11.30;81.10;;;;;;4993899;28;20038;-77
2021/11/06 03:11:38;;;;;;;7.53;5.30;;;11.20;80.90;;;;;;4994270;28;20019;-77
2021/11/06 03:14:07;;;;;;;7.03;5.35;;;11.30;81.10;;;;;;4993531;28;20045;-76
2021/11/06 03:16:37;;;;;;;6.10;5.05;;;11.30;81.10;;;;;;4993831;28;20038;-77
2021/11/06 03:19:04;;;;;;;6.25;5.43;;;11.20;80.90;;;;;;4976648;28;20576;-77
2021/11/06 03:21:30;;;;;;;7.22;5.40;;;11.20;80.90;;;;;;4993850;28;20031;-77
2021/11/06 03:23:56;;;;;;;8.52;5.38;;;11.20;80.90;;;;;;4992493;28;20516;-76
2021/11/06 03:26:22;;;;;;;5.72;5.13;;;11.20;80.90;;;;;;4993883;28;20030;-76
2021/11/06 03:28:48;;;;;;;5.90;5.38;;;11.20;80.90;;;;;;4992311;28;20486;-75
2021/11/06 03:31:14;;;;;;;5.32;4.82;;;11.20;80.90;;;;;;4994032;28;20066;-77
2021/11/06 03:33:40;;;;;;;6.30;5.25;;;11.20;80.90;;;;;;4993060;28;20034;-75
2021/11/06 03:36:06;;;;;;;5.93;4.60;;;11.20;80.90;;;;;;4992223;28;20482;-75
2021/11/06 03:38:32;;;;;;;6.00;5.07;;;11.20;81.00;;;;;;4993251;28;20033;-75
2021/11/06 03:40:58;;;;;;;6.28;4.75;;;11.20;81.00;;;;;;4993516;28;20470;-74
2021/11/06 03:43:23;;;;;;;6.47;4.82;;;11.20;81.00;;;;;;4992872;28;20092;-75
2021/11/06 03:45:49;;;;;;;4.85;4.38;;;11.20;81.00;;;;;;4993536;28;20031;-76
2021/11/06 03:48:16;;;;;;;5.30;4.80;;;11.20;81.00;;;;;;4992462;28;20027;-77
2021/11/06 03:50:42;;;;;;;5.20;4.60;;;11.20;81.00;;;;;;4993526;28;20058;-77
2021/11/06 03:53:07;;;;;;;5.95;4.70;;;11.20;81.00;;;;;;4993211;28;20482;-75
2021/11/06 03:55:33;;;;;;;5.90;4.47;;;11.20;81.00;;;;;;4993016;28;20157;-76
2021/11/06 03:58:00;;;;;;;5.97;4.07;;;11.20;81.00;;;;;;4993342;28;20121;-77
2021/11/06 04:00:26;;;;;;;8.55;5.47;;;11.20;80.90;;;;;;4992740;28;20084;-76
2021/11/06 04:02:52;;;;;;;6.47;5.03;;;11.20;80.90;;;;;;4993115;28;20037;-77
2021/11/06 04:05:18;;;;;;;5.10;4.60;;;11.20;80.90;;;;;;4993117;28;20027;-76
2021/11/06 04:07:44;;;;;;;5.50;3.90;;;11.20;80.90;;;;;;4993221;28;20038;-76
2021/11/06 04:10:11;;;;;;;4.60;4.20;;;11.20;80.90;;;;;;4993026;28;20027;-76
2021/11/06 04:12:39;;;;;;;4.60;4.20;;;11.20;81.00;;;;;;4991376;28;20394;-76
2021/11/06 04:15:09;;;;;;;4.30;3.88;;;11.20;81.00;;;;;;4992899;28;20129;-76
2021/11/06 04:17:36;;;;;;;4.95;4.55;;;11.20;81.00;;;;;;4992284;28;20038;-77
2021/11/06 04:20:03;;;;;;;4.63;4.00;;;11.20;81.00;;;;;;4992497;28;20401;-76
2021/11/06 04:22:29;;;;;;;4.38;3.97;;;11.10;80.80;;;;;;4992470;28;20504;-75
2021/11/06 04:24:55;;;;;;;4.47;4.07;;;11.20;81.00;;;;;;4992671;28;20034;-76
2021/11/06 04:27:21;;;;;;;3.95;3.55;;;11.20;81.00;;;;;;4992992;28;20045;-76
2021/11/06 04:29:47;;;;;;;4.53;4.05;;;11.20;81.00;;;;;;5007235;28;20406;-77
2021/11/06 04:32:13;;;;;;;5.35;3.78;;;11.10;80.80;;;;;;4991276;28;20038;-76
2021/11/06 04:34:38;;;;;;;5.65;4.88;;;11.10;80.80;;;;;;4992469;28;20587;-79
2021/11/06 04:37:05;;;;;;;4.68;4.18;;;11.20;81.00;;;;;;4991336;28;20049;-77
2021/11/06 04:39:31;;;;;;;4.40;3.90;;;11.20;81.00;;;;;;4992269;28;20041;-77
2021/11/06 04:41:57;;;;;;;5.53;4.20;;;11.20;81.00;;;;;;4992423;28;20045;-76
2021/11/06 04:44:24;;;;;;;4.90;4.25;;;11.20;81.00;;;;;;4992226;28;20402;-76
2021/11/06 04:46:49;;;;;;;4.53;3.85;;;11.20;81.00;;;;;;4991912;28;20387;-75
2021/11/06 04:49:15;;;;;;;7.00;3.67;;;11.10;80.80;;;;;;4992060;28;20054;-74
2021/11/06 04:51:41;;;;;;;4.88;3.67;;;11.10;80.80;;;;;;4991569;28;20113;-75
2021/11/06 04:54:08;;;;;;;5.38;4.75;;;11.10;80.80;;;;;;4992262;28;20050;-74
2021/11/06 04:56:34;;;;;;;4.55;4.03;;;11.10;80.80;;;;;;4990309;28;20065;-75
2021/11/06 04:58:59;;;;;;;4.15;3.60;;;11.10;80.80;;;;;;4989959;28;20062;-77
2021/11/06 05:01:27;;;;;;;4.80;3.75;;;11.10;80.80;;;;;;4991978;28;20023;-76
2021/11/06 05:03:53;;;;;;;4.85;3.75;;;11.10;80.80;;;;;;4990888;28;20046;-76
2021/11/06 05:06:19;;;;;;;4.50;4.10;;;11.10;80.80;;;;;;4992203;28;20030;-76
2021/11/06 05:08:45;;;;;;;4.93;4.05;;;11.10;80.80;;;;;;5007116;28;20031;-77
2021/11/06 05:11:11;;;;;;;5.00;3.90;;;11.10;80.80;;;;;;4991650;28;20046;-76
2021/11/06 05:13:37;;;;;;;5.10;4.43;;;11.10;80.80;;;;;;4991565;28;20489;-76
2021/11/06 05:16:03;;;;;;;5.10;3.78;;;11.10;80.80;;;;;;4991847;28;20037;-76
2021/11/06 05:18:29;;;;;;;5.32;4.47;;;11.10;80.80;;;;;;4990418;28;20038;-76
2021/11/06 05:20:55;;;;;;;4.25;3.63;;;11.10;80.80;;;;;;4991760;28;20030;-76
2021/11/06 05:23:21;;;;;;;5.47;3.42;;;11.10;80.80;;;;;;5006582;28;20060;-75
2021/11/06 05:25:48;;;;;;;5.60;4.43;;;11.10;80.90;;;;;;4991363;28;20038;-75
2021/11/06 05:28:14;;;;;;;7.68;4.50;;;11.10;80.90;;;;;;4991596;28;20172;-78
2021/11/06 05:30:41;;;;;;;6.38;3.65;;;11.10;80.90;;;;;;4991720;28;20053;-76
2021/11/06 05:33:08;;;;;;;5.15;3.83;;;11.10;80.90;;;;;;4990337;28;20037;-77
2021/11/06 05:35:34;;;;;;;4.43;3.90;;;11.10;80.90;;;;;;5006648;28;20042;-74
2021/11/06 05:37:59;;;;;;;4.10;3.50;;;11.10;80.90;;;;;;4991804;28;20429;-77
2021/11/06 05:40:26;;;;;;;3.45;3.15;;;11.10;80.90;;;;;;4990376;28;20030;-75
2021/11/06 05:42:52;;;;;;;4.18;3.78;;;11.10;80.90;;;;;;5006574;28;20109;-76
2021/11/06 05:45:17;;;;;;;4.50;3.97;;;11.10;80.90;;;;;;4991577;28;20041;-76
2021/11/06 05:47:44;;;;;;;3.90;3.50;;;11.10;80.90;;;;;;4986957;28;20030;-76
2021/11/06 05:50:12;;;;;;;5.93;3.60;;;11.10;80.90;;;;;;4987799;28;20086;-78
2021/11/06 05:52:38;;;;;;;4.30;3.55;;;11.10;80.90;;;;;;4988404;28;20030;-77
2021/11/06 05:55:08;;;;;;;4.63;3.95;;;11.10;81.40;;;;;;4986849;28;20038;-77
2021/11/06 05:57:35;;;;;;;4.50;3.58;;;11.10;80.90;;;;;;4988260;28;20046;-77
2021/11/06 06:00:09;;;;;;;5.13;3.95;;;11.10;80.90;;;;;;4988598;28;20075;-77
2021/11/06 06:02:36;;;;;;;5.60;3.38;;;11.10;80.90;;;;;;4984094;28;20033;-77
2021/11/06 06:05:02;;;;;;;4.55;3.50;;;11.10;80.90;;;;;;4986054;28;20565;-76
2021/11/06 06:07:28;;;;;;;3.47;3.17;;;11.10;80.90;;;;;;4985564;28;20041;-77
2021/11/06 06:09:54;;;;;;;4.20;3.47;;;11.10;80.90;;;;;;4985854;28;20172;-77
2021/11/06 06:12:20;;;;;;;4.68;3.53;;;11.10;80.90;;;;;;4988993;28;20073;-77
2021/11/06 06:14:45;;;;;;;4.57;2.95;;;11.10;80.90;;;;;;4989579;28;20065;-77
2021/11/06 06:17:11;;;;;;;4.75;3.30;;;11.10;81.00;;;;;;4988991;28;20025;-77
2021/11/06 06:19:38;;;;;;;3.58;2.88;;;11.10;80.90;;;;;;4988662;28;20034;-77
2021/11/06 06:22:04;;;;;;;5.60;3.35;;;11.10;81.00;;;;;;4988905;28;20034;-76
2021/11/06 06:24:30;;;;;;;3.65;3.28;;;11.10;81.00;;;;;;4989926;28;20518;-76
2021/11/06 06:26:56;;;;;;;4.32;3.05;;;11.10;80.90;;;;;;4990432;28;20494;-77
2021/11/06 06:29:21;;;;;;;4.07;3.08;;;11.10;80.90;;;;;;4990309;28;20109;-76
2021/11/06 06:31:48;;;;;;;3.65;3.28;;;11.20;81.10;;;;;;4988928;28;20034;-78
2021/11/06 06:34:14;;;;;;;4.45;3.30;;;11.20;81.10;;;;;;4970500;28;20085;-79
2021/11/06 06:36:40;;;;;;;7.38;4.00;;;11.10;81.00;;;;;;4969363;28;20037;-79
2021/11/06 06:39:06;;;;;;;4.80;3.65;;;11.20;81.30;;;;;;4984259;28;20030;-78
2021/11/06 06:41:33;;;;;;;4.25;3.25;;;11.20;81.50;;;;;;4988814;28;20038;-77
2021/11/06 06:43:59;;;;;;;4.82;3.45;;;11.30;81.90;;;;;;4988297;28;20080;-78
2021/11/06 06:46:25;;;;;;;4.10;3.60;;;11.20;81.70;;;;;;4992904;28;20033;-77
2021/11/06 06:48:51;;;;;;;4.78;3.20;;;11.30;82.00;;;;;;4987451;28;20097;-78
2021/11/06 06:51:18;;;;;;;3.78;3.38;;;11.30;82.00;;;;;;4989278;28;20088;-78
2021/11/06 06:53:44;;;;;;;6.95;4.13;;;11.30;82.00;;;;;;4983937;28;20236;-78
2021/11/06 06:56:10;;;;;;;3.53;3.22;;;11.30;82.00;;;;;;4987560;28;20034;-79
2021/11/06 06:58:39;;;;;;;4.47;3.40;;;11.30;82.00;;;;;;4998356;28;20037;-79
2021/11/06 07:01:05;;;;;;;4.28;2.92;;;11.30;82.00;;;;;;5009259;28;20029;-80
2021/11/06 07:03:31;;;;;;;6.30;3.50;;;11.30;82.00;;;;;;4994409;28;20367;-79
2021/11/06 07:05:57;;;;;;;3.83;3.15;;;11.30;82.00;;;;;;4988802;28;20058;-82
2021/11/06 07:08:23;;;;;;;4.05;3.47;;;11.30;82.00;;;;;;4997236;28;20060;-80
2021/11/06 07:10:49;;;;;;;3.97;2.83;;;11.30;82.00;;;;;;5003028;28;20072;-82
2021/11/06 07:13:20;;;;;;;4.75;3.83;;;11.30;82.00;;;;;;4987401;28;20058;-80
2021/11/06 07:15:46;;;;;;;3.10;2.80;;;11.30;82.00;;;;;;4988742;28;20046;-80
2021/11/06 07:18:13;;;;;;;5.20;3.50;;;11.30;82.00;;;;;;4993855;28;20057;-80
2021/11/06 07:20:39;;;;;;;4.53;3.28;;;11.40;82.10;;;;;;5009638;28;20125;-78
2021/11/06 07:23:06;;;;;;;3.63;2.90;;;11.30;81.90;;;;;;4986617;28;20029;-78
2021/11/06 07:25:33;;;;;;;4.90;3.13;;;11.30;81.90;;;;;;4986984;28;20022;-78
2021/11/06 07:27:59;;;;;;;3.45;2.90;;;11.30;81.90;;;;;;4984765;28;20033;-80
2021/11/06 07:30:26;;;;;;;4.97;3.30;;;11.30;81.90;;;;;;4977227;28;20038;-79
2021/11/06 07:32:52;;;;;;;3.83;2.75;;;11.30;81.90;;;;;;4986082;28;20030;-79
2021/11/06 07:35:19;;;;;;;4.47;3.13;;;11.30;81.90;;;;;;4992895;28;20026;-79
2021/11/06 07:37:45;;;;;;;3.55;3.25;;;11.30;81.90;;;;;;5003343;28;20371;-79
2021/11/06 07:40:12;;;;;;;4.80;3.60;;;11.30;81.90;;;;;;5003050;28;20038;-79
2021/11/06 07:42:41;;;;;;;4.68;3.13;;;11.30;81.90;;;;;;4965047;28;20069;-80
2021/11/06 07:45:10;;;;;;;3.70;3.00;;;11.40;82.00;;;;;;4988309;28;20037;-80
2021/11/06 07:47:36;;;;;;;3.33;2.70;;;11.30;81.80;;;;;;4989266;28;20031;-79
2021/11/06 07:50:03;;;;;;;4.03;3.00;;;11.40;82.00;;;;;;4970884;28;20559;-78
2021/11/06 07:52:29;;;;;;;5.70;3.30;;;11.30;81.80;;;;;;4987998;28;20031;-80
2021/11/06 07:54:55;;;;;;;5.07;3.50;;;11.40;81.90;;;;;;4987912;28;20038;-79
2021/11/06 07:57:21;;;;;;;4.22;3.20;;;11.40;81.90;;;;;;5003705;28;20035;-80
2021/11/06 07:59:47;;;;;;;5.38;3.20;;;11.40;81.90;;;;;;4988303;28;20062;-82
2021/11/06 08:02:14;;;;;;;5.18;3.20;;;11.40;81.90;;;;;;4988784;28;20035;-81
2021/11/06 08:04:40;;;;;;;3.63;3.33;;;11.40;82.10;;;;;;4988428;28;20022;-78
2021/11/06 08:07:06;;;;;;;5.25;3.10;;;11.50;82.30;;;;;;4988138;28;20561;-79
2021/11/06 08:09:32;;;;;;;4.00;3.42;;;11.50;82.40;;;;;;5003094;28;20361;-77
2021/11/06 08:11:58;;;;;;;4.22;3.03;;;11.50;82.40;;;;;;4998315;28;20390;-77
2021/11/06 08:14:24;;;;;;;4.30;3.17;;;11.60;82.60;;;;;;4985476;28;20049;-77
2021/11/06 08:16:55;;;;;;;4.35;2.72;;;11.60;82.60;;;;;;4984058;28;20022;-78
2021/11/06 08:19:25;;;;;;;3.72;3.13;;;11.60;82.50;;;;;;4985958;28;20037;-77
2021/11/06 08:21:52;;;;;;;5.10;2.97;;;11.60;82.50;;;;;;4985455;28;20485;-77
2021/11/06 08:24:19;;;;;;;3.60;3.00;;;11.60;82.50;;;;;;4986387;28;20031;-78
2021/11/06 08:26:46;;;;;;;3.63;2.95;;;11.60;82.40;;;;;;4985021;28;20108;-78
2021/11/06 08:29:12;;;;;;;4.38;3.08;;;11.60;82.40;;;;;;4985203;28;20444;-77
2021/11/06 08:31:39;;;;;;;3.85;2.70;;;11.60;82.40;;;;;;4984898;28;20298;-77
2021/11/06 08:34:05;;;;;;;4.05;3.42;;;11.60;82.30;;;;;;4985370;28;20042;-78
2021/11/06 08:36:31;;;;;;;4.40;3.53;;;11.60;82.30;;;;;;4986264;28;20053;-79
2021/11/06 08:38:57;;;;;;;4.80;3.17;;;11.60;82.30;;;;;;4986541;28;20045;-78
2021/11/06 08:41:23;;;;;;;4.38;2.80;;;11.60;82.20;;;;;;4986841;28;20026;-78
2021/11/06 08:43:49;;;;;;;2.85;2.63;;;11.60;82.20;;;;;;4987841;28;20030;-79
2021/11/06 08:46:15;;;;;;;5.32;3.08;;;11.60;82.20;;;;;;4986821;28;20049;-78
2021/11/06 08:48:41;;;;;;;5.32;2.88;;;11.60;82.20;;;;;;4986778;28;20549;-78
2021/11/06 08:51:08;;;;;;;5.00;3.22;;;11.60;82.20;;;;;;4986802;28;20121;-78
2021/11/06 08:53:34;;;;;;;4.47;3.30;;;11.70;82.30;;;;;;4987060;28;20468;-80
2021/11/06 08:56:00;;;;;;;6.25;3.10;;;11.70;82.30;;;;;;4987566;28;20041;-79
2021/11/06 08:58:26;;;;;;;4.78;3.40;;;11.70;82.20;;;;;;4987171;28;20031;-78
2021/11/06 09:00:53;;;;;;;3.58;2.78;;;11.70;82.20;;;;;;4985906;28;20030;-78
2021/11/06 09:03:22;;;;;;;3.95;3.30;;;11.70;82.20;;;;;;4985558;28;20030;-78
2021/11/06 09:05:51;;;;;;;5.00;3.47;;;11.70;82.20;;;;;;4987866;28;20088;-78
2021/11/06 09:08:28;;;;;;;3.75;2.70;;;11.80;82.30;;;;;;4986848;28;20064;-78
2021/11/06 09:10:59;;;;;;;3.60;2.47;;;11.80;82.30;;;;;;4985917;28;20087;-78
2021/11/06 09:13:26;;;;;;;3.03;2.70;;;11.80;82.20;;;;;;4986611;28;20444;-78
2021/11/06 09:15:52;;;;;;;2.85;2.63;;;11.90;82.30;;;;;;4987109;28;20077;-77
2021/11/06 09:18:18;;;;;;;3.75;3.45;;;11.90;82.30;;;;;;4992889;28;20038;-78
2021/11/06 09:20:44;;;;;;;2.75;2.22;;;11.90;82.20;;;;;;5005920;28;20754;-78
2021/11/06 09:23:10;;;;;;;4.50;3.55;;;11.90;82.10;;;;;;5006045;28;20520;-78
2021/11/06 09:25:36;;;;;;;3.03;2.75;;;12.00;82.20;;;;;;5004756;28;20034;-80
2021/11/06 09:28:03;;;;;;;4.07;3.00;;;12.00;82.20;;;;;;5005441;28;20513;-79
2021/11/06 09:30:29;;;;;;;3.08;2.45;;;12.00;82.10;;;;;;5005574;28;20540;-79
2021/11/06 09:32:55;;;;;;;3.90;2.58;;;12.00;82.10;;;;;;4996937;28;20110;-79
2021/11/06 09:35:22;;;;;;;3.67;2.28;;;12.00;82.00;;;;;;4986877;28;20137;-78
2021/11/06 09:37:49;;;;;;;3.25;2.38;;;12.10;82.20;;;;;;4986498;28;20145;-78
2021/11/06 09:40:15;;;;;;;4.72;3.22;;;12.10;82.20;;;;;;4986770;28;20038;-77
2021/11/06 09:42:43;;;;;;;2.90;2.58;;;12.20;82.40;;;;;;4987713;28;20072;-77
2021/11/06 09:45:11;;;;;;;2.70;2.50;;;12.30;82.50;;;;;;5000993;28;20038;-77
2021/11/06 09:47:42;;;;;;;2.50;2.00;;;12.40;82.60;;;;;;4984841;28;20030;-79
2021/11/06 09:50:10;;;;;;;2.80;2.40;;;12.50;82.60;;;;;;4974739;28;20046;-77
2021/11/06 09:52:36;;;;;;;3.50;2.28;;;12.60;82.50;;;;;;4986272;28;20462;-77
2021/11/06 09:55:04;;;;;;;3.17;2.80;;;12.70;82.50;;;;;;4985967;28;20046;-77
2021/11/06 09:57:29;;;;;;;3.67;2.30;;;12.80;82.50;;;;;;4986277;28;20198;-79
2021/11/06 09:59:55;;;;;;;2.53;2.05;;;12.90;82.40;;;;;;4980348;28;20121;-78
2021/11/06 10:02:23;;;;;;;3.15;2.00;;;13.00;82.40;;;;;;4976541;28;20463;-79
2021/11/06 10:04:49;;;;;;;3.15;2.45;;;13.10;82.40;;;;;;4985909;28;20032;-77
2021/11/06 10:07:21;;;;;;;4.38;2.13;;;13.10;82.30;;;;;;4986456;28;20042;-77
2021/11/06 10:10:13;;;;;;;4.38;2.90;;;13.20;82.40;;;;;;5003595;28;20038;-77
2021/11/06 10:12:57;;;;;;;2.92;1.90;;;13.20;82.30;;;;;;5000284;28;20036;-77
2021/11/06 10:15:24;;;;;;;;;;;13.30;82.40;;;;;;4986819;28;20406;-77
2021/11/06 10:17:51;;;;;;;3.67;1.80;;;13.30;82.30;;;;;;4988685;28;19920;-77
2021/11/06 10:20:25;;;;;;;3.55;1.98;;;13.40;82.30;;;;;;5005573;28;20156;-77
2021/11/06 10:22:59;;;;;;;3.67;2.05;;;13.50;82.30;;;;;;4986030;28;20037;-77
2021/11/06 10:25:26;;;;;;;2.83;1.67;;;13.50;82.20;;;;;;4983848;28;20038;-76
2021/11/06 10:27:58;;;;;;;4.40;2.13;;;13.60;82.30;;;;;;4986576;28;20034;-77
2021/11/06 10:30:33;;;;;;;3.65;1.75;;;13.70;82.40;;;;;;4985369;28;20042;-76
2021/11/06 10:33:04;;;;;;;3.47;2.05;;;13.80;82.40;;;;;;4994579;28;20646;-78
2021/11/06 10:35:36;;;;;;;3.78;1.58;;;13.90;82.30;;;;;;5005833;28;20050;-77
2021/11/06 10:38:14;;;;;;;2.00;1.30;;;13.90;82.20;;;;;;4995160;28;20498;-78
2021/11/06 10:41:10;;;;;;;3.95;1.52;;;14.00;82.20;;;;;;4985721;28;20030;-78
2021/11/06 10:43:37;;;;;;;5.65;2.30;;;14.00;82.00;;;;;;4972214;28;20042;-78
2021/11/06 10:46:04;;;;;;;2.00;1.23;;;14.00;82.00;;;;;;4985468;28;20033;-76
2021/11/06 10:48:35;;;;;;;3.03;1.50;;;14.00;81.90;;;;;;4993876;28;20121;-77
2021/11/06 10:51:03;;;;;;;3.10;1.58;;;14.10;82.10;;;;;;5003212;28;20061;-77
2021/11/06 10:53:54;;;;;;;4.20;1.60;;;14.00;81.90;;;;;;5007890;28;20041;-77
2021/11/06 10:56:42;;;;;;;2.90;1.75;;;14.10;82.00;;;;;;4985814;28;20437;-77
2021/11/06 10:59:09;;;;;;;2.63;1.52;;;14.10;81.80;;;;;;5000578;28;20307;-77
2021/11/06 11:01:38;;;;;;;3.22;1.35;;;14.20;81.90;;;;;;5009668;28;20052;-77
2021/11/06 11:04:08;;;;;;;2.72;1.40;;;14.20;81.90;;;;;;5006885;28;20129;-77
2021/11/06 11:06:47;;;;;;;5.10;1.30;;;14.10;81.70;;;;;;5004208;28;20034;-77
2021/11/06 11:09:28;;;;;;;2.00;1.30;;;14.20;81.80;;;;;;5003634;28;20469;-77
2021/11/06 11:11:57;;;;;;;1.92;1.52;;;14.10;81.60;;;;;;5008929;28;20100;-77
2021/11/06 11:14:26;;;;;;;2.63;1.20;;;14.20;81.70;;;;;;4988113;28;20132;-76
2021/11/06 11:17:04;;;;;;;3.38;1.20;;;14.20;81.60;;;;;;4989353;28;20117;-77
2021/11/06 11:19:50;;;;;;;2.30;1.00;;;14.20;81.50;;;;;;4989276;28;20247;-76
2021/11/06 11:22:25;;;;;;;2.47;1.63;;;14.20;81.40;;;;;;4988947;28;20026;-80
2021/11/06 11:24:52;;;;;;;1.85;1.17;;;14.20;81.30;;;;;;4971428;28;20410;-79
2021/11/06 11:27:18;;;;;;;2.88;1.20;;;14.20;81.30;;;;;;5004434;28;20034;-79
2021/11/06 11:29:45;;;;;;;2.25;1.20;;;14.20;81.30;;;;;;4989089;28;20034;-77
2021/11/06 11:32:13;;;;;;;1.10;1.00;;;14.30;81.40;;;;;;4986869;28;20109;-78
2021/11/06 11:34:47;;;;;;;2.38;0.90;;;14.30;81.40;;;;;;5004300;28;20185;-79
2021/11/06 11:37:14;;;;;;;1.80;1.05;;;14.40;81.40;;;;;;4987829;28;20709;-78
2021/11/06 11:39:40;;;;;;;2.63;1.30;;;14.40;81.30;;;;;;4988274;28;20026;-77
2021/11/06 11:42:50;;;;;;;2.53;1.58;;;14.50;81.40;;;;;;4979295;28;20035;-79
2021/11/06 11:45:31;;;;;;;1.30;0.98;;;14.50;81.30;;;;;;4969534;28;20041;-78
2021/11/06 11:48:13;;;;;;;2.38;1.10;;;14.50;81.20;;;;;;4985403;28;20041;-80
2021/11/06 11:50:42;;;;;;;1.05;0.95;;;14.60;81.30;;;;;;4988581;28;20589;-78
2021/11/06 11:53:20;;;;;;;3.83;1.20;;;14.60;81.20;;;;;;4987608;28;20158;-79
2021/11/06 11:55:46;;;;;;;2.25;1.15;;;14.70;81.20;;;;;;4987875;28;20073;-78
2021/11/06 11:58:24;;;;;;;4.20;1.85;;;14.80;81.20;;;;;;4993415;28;20085;-77
2021/11/06 12:00:54;;;;;;;2.83;1.45;;;14.90;81.20;;;;;;5023072;28;20034;-78
2021/11/06 12:03:44;;;;;;;2.80;0.90;;;15.00;81.30;;;;;;5007956;28;20034;-77
2021/11/06 12:06:27;;;;;;;1.67;0.90;;;15.00;81.10;;;;;;5007852;28;20418;-77
2021/11/06 12:08:57;;;;;;;4.22;0.95;;;15.10;81.10;;;;;;4995264;28;20027;-77
2021/11/06 12:11:31;;;;;;;2.58;1.25;;;15.20;81.20;;;;;;4987777;28;20109;-77
2021/11/06 12:13:59;;;;;;;3.95;1.85;;;15.20;81.00;;;;;;4986912;28;20045;-77
2021/11/06 12:16:57;;;;;;;2.33;0.90;;;15.20;81.00;;;;;;4988231;28;20069;-77
2021/11/06 12:19:50;;;;;;;1.70;0.80;;;15.30;81.00;;;;;;4987590;28;20042;-77
2021/11/06 12:22:31;;;;;;;2.47;1.00;;;15.40;81.00;;;;;;4987915;28;20034;-76
2021/11/06 12:25:21;;;;;;;9.48;1.13;;;15.40;80.90;;;;;;4986888;28;20041;-77
2021/11/06 12:27:58;;;;;;;5.47;1.73;;;15.50;80.90;;;;;;4988061;28;20025;-76
2021/11/06 12:30:29;;;;;;;2.80;1.00;;;15.50;80.80;;;;;;4988351;28;20332;-79
2021/11/06 12:32:57;;;;;;;6.07;1.65;;;15.50;80.80;;;;;;4987468;28;20042;-76
2021/11/06 12:35:25;;;;;;;7.50;0.88;;;15.50;80.80;;;;;;4987626;28;20060;-79
2021/11/06 12:37:57;;;;;;;3.42;1.13;;;15.50;80.80;;;;;;4985838;28;20038;-79
2021/11/06 12:40:37;;;;;;;6.32;1.10;;;15.60;81.00;;;;;;4987540;28;20553;-79
2021/11/06 12:43:08;;;;;;;3.53;1.13;;;15.70;80.90;;;;;;4987397;28;20490;-80
2021/11/06 12:45:35;;;;;;;3.75;0.93;;;15.80;80.90;;;;;;4985697;28;20034;-79
2021/11/06 12:48:09;;;;;;;6.45;1.10;;;15.80;80.70;;;;;;4984957;28;20076;-80
2021/11/06 12:50:57;;;;;;;2.78;1.55;;;15.90;80.70;;;;;;5021593;28;20402;-80